createdAt,value
2017-02-17T00:00:49.237Z,24.33
2017-02-17T00:01:49.527Z,24.32
2017-02-17T00:02:49.464Z,24.26
2017-02-17T00:03:49.387Z,24.3
2017-02-17T00:04:49.328Z,24.29
2017-02-17T00:05:49.271Z,24.36
2017-02-17T00:06:49.205Z,24.29
2017-02-17T00:07:49.139Z,24.3
2017-02-17T00:08:49.080Z,24.28
2017-02-17T00:09:49.016Z,24.24
2017-02-17T00:10:48.955Z,24.29
2017-02-17T00:11:48.891Z,24.29
2017-02-17T00:12:48.830Z,24.33
2017-02-17T00:13:48.784Z,24.26
2017-02-17T00:14:48.700Z,24.26
2017-02-17T00:15:48.676Z,24.24
2017-02-17T00:16:48.586Z,24.33
2017-02-17T00:17:48.527Z,24.28
2017-02-17T00:18:48.452Z,24.29
2017-02-17T00:19:48.390Z,24.26
2017-02-17T00:20:48.328Z,24.32
2017-02-17T00:21:48.264Z,24.24
2017-02-17T00:22:48.207Z,24.33
2017-02-17T00:23:48.142Z,24.33
2017-02-17T00:24:48.081Z,24.26
2017-02-17T00:25:48.047Z,24.32
2017-02-17T00:26:47.978Z,24.32
2017-02-17T00:27:47.899Z,24.33
2017-02-17T00:28:47.827Z,24.24
2017-02-17T00:29:47.773Z,24.32
2017-02-17T00:30:47.706Z,24.26
2017-02-17T00:31:47.639Z,24.33
2017-02-17T00:32:47.629Z,24.29
2017-02-17T00:33:47.519Z,24.28
2017-02-17T00:34:47.458Z,24.26
2017-02-17T00:35:47.400Z,24.28
2017-02-17T00:36:47.335Z,24.26
2017-02-17T00:37:47.266Z,24.26
2017-02-17T00:38:47.207Z,24.28
2017-02-17T00:39:47.150Z,24.29
2017-02-17T00:40:47.089Z,24.29
2017-02-17T00:41:47.014Z,24.28
2017-02-17T00:42:46.956Z,24.32
2017-02-17T00:43:46.892Z,24.26
2017-02-17T00:44:46.826Z,24.26
2017-02-17T00:45:46.769Z,24.28
2017-02-17T00:46:46.725Z,24.28
2017-02-17T00:47:46.686Z,24.28
2017-02-17T00:48:46.596Z,24.28
2017-02-17T00:49:46.524Z,24.35
2017-02-17T00:50:46.454Z,24.26
2017-02-17T00:51:46.391Z,24.3
2017-02-17T00:52:46.356Z,24.23
2017-02-17T00:53:46.281Z,24.29
2017-02-17T00:54:46.207Z,24.24
2017-02-17T00:55:45.801Z,24.3
2017-02-17T00:56:46.083Z,24.35
2017-02-17T00:57:46.021Z,24.28
2017-02-17T00:58:45.961Z,24.24
2017-02-17T00:59:45.891Z,24.29
2017-02-17T01:01:16.259Z,24.24
2017-02-17T01:02:15.680Z,24.3
2017-02-17T01:03:15.625Z,24.28
2017-02-17T01:04:15.551Z,24.32
2017-02-17T01:05:15.097Z,24.28
2017-02-17T01:06:15.422Z,24.29
2017-02-17T01:07:14.976Z,24.29
2017-02-17T01:08:14.928Z,24.24
2017-02-17T01:09:14.855Z,24.3
2017-02-17T01:10:15.191Z,24.33
2017-02-17T01:11:14.722Z,24.28
2017-02-17T01:12:15.050Z,24.28
2017-02-17T01:13:14.988Z,24.32
2017-02-17T01:14:14.534Z,24.23
2017-02-17T01:15:14.481Z,24.26
2017-02-17T01:16:14.812Z,24.32
2017-02-17T01:17:14.743Z,24.29
2017-02-17T01:18:14.675Z,24.26
2017-02-17T01:19:14.615Z,24.3
2017-02-17T01:20:14.157Z,24.26
2017-02-17T01:21:14.494Z,24.24
2017-02-17T01:22:14.317Z,24.28
2017-02-17T01:23:13.976Z,24.32
2017-02-17T01:24:14.313Z,24.3
2017-02-17T01:25:14.241Z,24.32
2017-02-17T01:26:13.792Z,24.29
2017-02-17T01:27:14.114Z,24.26
2017-02-17T01:28:13.667Z,24.24
2017-02-17T01:29:14.009Z,24.26
2017-02-17T01:30:13.937Z,24.29
2017-02-17T01:31:13.871Z,24.29
2017-02-17T01:32:13.805Z,24.26
2017-02-17T01:33:13.744Z,24.26
2017-02-17T01:34:14.254Z,24.29
2017-02-17T01:35:13.624Z,24.32
2017-02-17T01:36:13.551Z,24.3
2017-02-17T01:37:13.106Z,24.3
2017-02-17T01:38:13.452Z,24.26
2017-02-17T01:39:13.380Z,24.24
2017-02-17T01:40:13.309Z,24.28
2017-02-17T01:41:12.846Z,24.3
2017-02-17T01:42:13.491Z,24.29
2017-02-17T01:43:13.118Z,24.26
2017-02-17T01:44:13.069Z,24.28
2017-02-17T01:45:12.997Z,24.26
2017-02-17T01:46:12.950Z,24.29
2017-02-17T01:47:12.865Z,24.28
2017-02-17T01:48:12.429Z,24.3
2017-02-17T01:49:12.738Z,24.26
2017-02-17T01:50:12.679Z,24.28
2017-02-17T01:51:12.618Z,24.26
2017-02-17T01:52:12.161Z,24.24
2017-02-17T01:53:12.505Z,24.29
2017-02-17T01:54:12.428Z,24.28
2017-02-17T01:55:11.967Z,24.26
2017-02-17T01:56:11.973Z,24.24
2017-02-17T01:57:12.250Z,24.26
2017-02-17T01:58:12.184Z,24.29
2017-02-17T01:59:12.123Z,24.3
2017-02-17T02:00:12.065Z,24.29
2017-02-17T02:01:12.305Z,24.26
2017-02-17T02:02:11.541Z,24.26
2017-02-17T02:03:11.870Z,24.26
2017-02-17T02:04:12.121Z,24.3
2017-02-17T02:05:11.356Z,24.26
2017-02-17T02:06:11.680Z,24.29
2017-02-17T02:07:11.624Z,24.28
2017-02-17T02:08:11.555Z,24.28
2017-02-17T02:09:11.502Z,24.24
2017-02-17T02:10:11.427Z,24.26
2017-02-17T02:11:11.377Z,24.26
2017-02-17T02:12:10.913Z,24.23
2017-02-17T02:13:11.236Z,24.26
2017-02-17T02:14:11.179Z,24.21
2017-02-17T02:15:11.118Z,24.29
2017-02-17T02:16:11.067Z,24.26
2017-02-17T02:17:10.988Z,24.26
2017-02-17T02:18:10.543Z,24.32
2017-02-17T02:19:11.165Z,24.24
2017-02-17T02:20:10.814Z,24.26
2017-02-17T02:21:10.743Z,24.24
2017-02-17T02:22:10.680Z,24.23
2017-02-17T02:23:10.240Z,24.23
2017-02-17T02:24:10.560Z,24.2
2017-02-17T02:25:10.499Z,24.24
2017-02-17T02:26:10.440Z,24.26
2017-02-17T02:27:10.385Z,24.21
2017-02-17T02:28:10.303Z,24.26
2017-02-17T02:29:10.255Z,24.26
2017-02-17T02:30:10.182Z,24.24
2017-02-17T02:31:10.119Z,24.28
2017-02-17T02:32:09.668Z,24.21
2017-02-17T02:33:10.005Z,24.24
2017-02-17T02:34:09.943Z,24.24
2017-02-17T02:35:09.867Z,24.23
2017-02-17T02:36:09.813Z,24.24
2017-02-17T02:37:09.758Z,24.24
2017-02-17T02:38:09.700Z,24.28
2017-02-17T02:39:09.634Z,24.26
2017-02-17T02:40:09.568Z,24.26
2017-02-17T02:41:09.498Z,24.21
2017-02-17T02:42:09.431Z,24.26
2017-02-17T02:43:09.371Z,24.23
2017-02-17T02:44:09.313Z,24.26
2017-02-17T02:45:09.241Z,24.26
2017-02-17T02:46:09.186Z,24.24
2017-02-17T02:47:08.734Z,24.21
2017-02-17T02:48:09.071Z,24.26
2017-02-17T02:49:09.003Z,24.23
2017-02-17T02:50:08.551Z,24.21
2017-02-17T02:51:08.865Z,24.23
2017-02-17T02:52:08.417Z,24.24
2017-02-17T02:53:08.743Z,24.21
2017-02-17T02:54:08.693Z,24.21
2017-02-17T02:55:08.628Z,24.26
2017-02-17T02:56:08.558Z,24.2
2017-02-17T02:57:08.498Z,24.24
2017-02-17T02:58:08.045Z,24.28
2017-02-17T02:59:08.669Z,24.24
2017-02-17T03:00:08.327Z,24.23
2017-02-17T03:01:08.242Z,24.23
2017-02-17T03:02:07.786Z,24.24
2017-02-17T03:03:08.116Z,24.29
2017-02-17T03:04:08.055Z,24.24
2017-02-17T03:05:08.003Z,24.21
2017-02-17T03:06:07.943Z,24.26
2017-02-17T03:07:07.865Z,24.24
2017-02-17T03:08:07.805Z,24.23
2017-02-17T03:09:08.049Z,24.29
2017-02-17T03:10:07.290Z,24.23
2017-02-17T03:11:07.638Z,24.26
2017-02-17T03:12:07.563Z,24.23
2017-02-17T03:13:07.112Z,24.26
2017-02-17T03:14:07.439Z,24.24
2017-02-17T03:15:07.386Z,24.2
2017-02-17T03:16:07.310Z,24.29
2017-02-17T03:17:07.248Z,24.26
2017-02-17T03:18:07.185Z,24.29
2017-02-17T03:19:06.733Z,24.24
2017-02-17T03:20:07.067Z,24.21
2017-02-17T03:21:06.999Z,24.24
2017-02-17T03:22:06.931Z,24.14
2017-02-17T03:23:06.870Z,24.21
2017-02-17T03:24:06.806Z,24.28
2017-02-17T03:25:06.776Z,24.26
2017-02-17T03:26:06.694Z,24.24
2017-02-17T03:27:06.660Z,24.24
2017-02-17T03:28:06.177Z,24.21
2017-02-17T03:29:06.493Z,24.26
2017-02-17T03:30:06.434Z,24.26
2017-02-17T03:31:06.401Z,24.23
2017-02-17T03:32:06.314Z,24.23
2017-02-17T03:33:06.249Z,24.26
2017-02-17T03:34:06.235Z,24.29
2017-02-17T03:35:06.123Z,24.26
2017-02-17T03:36:06.057Z,24.28
2017-02-17T03:37:05.997Z,24.28
2017-02-17T03:38:05.972Z,24.26
2017-02-17T03:39:05.866Z,24.26
2017-02-17T03:40:05.815Z,24.2
2017-02-17T03:41:05.748Z,24.23
2017-02-17T03:42:05.673Z,24.18
2017-02-17T03:43:05.615Z,24.21
2017-02-17T03:44:05.554Z,24.2
2017-02-17T03:45:05.491Z,24.23
2017-02-17T03:46:05.432Z,24.21
2017-02-17T03:47:05.277Z,24.26
2017-02-17T03:48:05.316Z,24.23
2017-02-17T03:49:05.252Z,24.24
2017-02-17T03:50:04.790Z,24.24
2017-02-17T03:51:05.123Z,24.23
2017-02-17T03:52:05.054Z,24.26
2017-02-17T03:53:04.996Z,24.3
2017-02-17T03:54:04.934Z,24.26
2017-02-17T03:55:05.170Z,24.24
2017-02-17T03:56:04.807Z,24.26
2017-02-17T03:57:05.047Z,24.23
2017-02-17T03:58:04.702Z,24.23
2017-02-17T03:59:04.629Z,24.26
2017-02-17T04:00:04.555Z,24.24
2017-02-17T04:01:04.507Z,24.28
2017-02-17T04:02:04.438Z,24.26
2017-02-17T04:03:04.373Z,24.28
2017-02-17T04:04:04.308Z,24.21
2017-02-17T04:05:04.253Z,24.24
2017-02-17T04:06:03.792Z,24.23
2017-02-17T04:07:04.117Z,24.26
2017-02-17T04:08:04.059Z,24.29
2017-02-17T04:09:03.991Z,24.23
2017-02-17T04:10:03.936Z,24.28
2017-02-17T04:11:03.891Z,24.2
2017-02-17T04:12:03.810Z,24.23
2017-02-17T04:13:03.355Z,24.29
2017-02-17T04:14:03.682Z,24.26
2017-02-17T04:15:03.640Z,24.26
2017-02-17T04:16:03.565Z,24.23
2017-02-17T04:17:03.493Z,24.26
2017-02-17T04:18:03.434Z,24.24
2017-02-17T04:19:03.374Z,24.24
2017-02-17T04:20:03.327Z,24.24
2017-02-17T04:21:03.250Z,24.23
2017-02-17T04:22:03.178Z,24.2
2017-02-17T04:23:03.126Z,24.3
2017-02-17T04:24:03.054Z,24.23
2017-02-17T04:25:02.601Z,24.24
2017-02-17T04:26:02.931Z,24.21
2017-02-17T04:27:02.881Z,24.24
2017-02-17T04:28:02.413Z,24.23
2017-02-17T04:29:02.758Z,24.21
2017-02-17T04:30:02.588Z,24.21
2017-02-17T04:31:02.914Z,24.24
2017-02-17T04:32:02.555Z,24.23
2017-02-17T04:33:02.502Z,24.17
2017-02-17T04:34:02.438Z,24.2
2017-02-17T04:35:02.678Z,24.26
2017-02-17T04:36:02.303Z,24.24
2017-02-17T04:37:02.534Z,24.26
2017-02-17T04:38:02.180Z,24.21
2017-02-17T04:39:02.120Z,24.23
2017-02-17T04:40:02.078Z,24.21
2017-02-17T04:41:01.993Z,24.21
2017-02-17T04:42:01.938Z,24.29
2017-02-17T04:43:01.873Z,24.21
2017-02-17T04:44:01.809Z,24.26
2017-02-17T04:45:01.744Z,24.26
2017-02-17T04:46:01.981Z,24.24
2017-02-17T04:47:01.627Z,24.26
2017-02-17T04:48:01.565Z,24.21
2017-02-17T04:49:01.507Z,24.28
2017-02-17T04:50:01.478Z,24.26
2017-02-17T04:51:01.376Z,24.28
2017-02-17T04:52:01.308Z,24.24
2017-02-17T04:53:01.300Z,24.24
2017-02-17T04:54:01.191Z,24.24
2017-02-17T04:55:01.414Z,24.26
2017-02-17T04:56:01.053Z,24.2
2017-02-17T04:57:00.998Z,24.24
2017-02-17T04:58:00.931Z,24.29
2017-02-17T04:59:00.871Z,24.28
2017-02-17T05:00:00.801Z,24.24
2017-02-17T05:01:00.360Z,24.24
2017-02-17T05:02:00.693Z,24.24
2017-02-17T05:03:00.620Z,24.2
2017-02-17T05:04:00.561Z,24.24
2017-02-17T05:05:00.503Z,24.18
2017-02-17T05:06:00.444Z,24.21
2017-02-17T05:07:00.008Z,24.21
2017-02-17T05:07:59.925Z,24.26
2017-02-17T05:09:00.249Z,24.23
2017-02-17T05:10:00.215Z,24.21
2017-02-17T05:11:00.119Z,24.24
2017-02-17T05:11:59.675Z,24.23
2017-02-17T05:12:59.993Z,24.29
2017-02-17T05:13:59.953Z,24.24
2017-02-17T05:14:59.883Z,24.26
2017-02-17T05:15:59.814Z,24.28
2017-02-17T05:16:59.746Z,24.3
2017-02-17T05:17:59.687Z,24.28
2017-02-17T05:18:59.626Z,24.26
2017-02-17T05:19:59.555Z,24.26
2017-02-17T05:20:59.501Z,24.21
2017-02-17T05:21:59.436Z,24.23
2017-02-17T05:22:58.974Z,24.23
2017-02-17T05:23:59.315Z,24.23
2017-02-17T05:24:59.241Z,24.26
2017-02-17T05:25:59.192Z,24.24
2017-02-17T05:26:59.115Z,24.29
2017-02-17T05:27:59.066Z,24.3
2017-02-17T05:28:59.008Z,24.29
2017-02-17T05:29:58.942Z,24.26
2017-02-17T05:30:58.881Z,24.26
2017-02-17T05:31:58.823Z,24.23
2017-02-17T05:32:58.742Z,24.21
2017-02-17T05:33:58.695Z,24.24
2017-02-17T05:34:58.614Z,24.28
2017-02-17T05:35:58.564Z,24.3
2017-02-17T05:36:58.499Z,24.23
2017-02-17T05:37:58.447Z,24.29
2017-02-17T05:38:58.378Z,24.29
2017-02-17T05:39:58.337Z,24.28
2017-02-17T05:40:58.243Z,24.26
2017-02-17T05:41:58.177Z,24.26
2017-02-17T05:42:58.129Z,24.3
2017-02-17T05:43:58.059Z,24.26
2017-02-17T05:44:57.994Z,24.29
2017-02-17T05:45:57.957Z,24.26
2017-02-17T05:46:58.168Z,24.26
2017-02-17T05:47:57.813Z,24.26
2017-02-17T05:48:57.753Z,24.24
2017-02-17T05:49:57.683Z,24.26
2017-02-17T05:50:57.622Z,24.29
2017-02-17T05:51:57.554Z,24.21
2017-02-17T05:52:57.493Z,24.24
2017-02-17T05:53:57.427Z,24.28
2017-02-17T05:54:57.376Z,24.24
2017-02-17T05:55:57.309Z,24.23
2017-02-17T05:56:57.248Z,24.23
2017-02-17T05:57:57.191Z,24.2
2017-02-17T05:58:57.134Z,24.2
2017-02-17T05:59:57.067Z,24.23
2017-02-17T06:00:57.013Z,24.2
2017-02-17T06:01:56.942Z,24.2
2017-02-17T06:02:56.875Z,24.2
2017-02-17T06:03:56.808Z,24.21
2017-02-17T06:04:56.750Z,24.16
2017-02-17T06:05:56.692Z,24.17
2017-02-17T06:06:56.617Z,24.21
2017-02-17T06:07:56.567Z,24.11
2017-02-17T06:08:56.501Z,24.14
2017-02-17T06:09:56.440Z,24.21
2017-02-17T06:10:56.378Z,24.2
2017-02-17T06:11:56.317Z,24.23
2017-02-17T06:12:56.250Z,24.16
2017-02-17T06:13:56.187Z,24.23
2017-02-17T06:14:56.120Z,24.16
2017-02-17T06:15:56.055Z,24.18
2017-02-17T06:16:55.992Z,24.1
2017-02-17T06:17:55.943Z,24.17
2017-02-17T06:18:55.875Z,24.16
2017-02-17T06:19:55.823Z,24.16
2017-02-17T06:20:55.742Z,24.18
2017-02-17T06:21:55.679Z,24.14
2017-02-17T06:22:55.617Z,24.16
2017-02-17T06:23:55.566Z,24.13
2017-02-17T06:24:55.494Z,24.11
2017-02-17T06:25:55.433Z,24.16
2017-02-17T06:26:55.390Z,24.11
2017-02-17T06:27:55.597Z,24.14
2017-02-17T06:28:55.247Z,24.17
2017-02-17T06:29:55.179Z,24.16
2017-02-17T06:30:55.117Z,24.17
2017-02-17T06:31:55.055Z,24.16
2017-02-17T06:32:54.990Z,24.13
2017-02-17T06:33:54.929Z,24.23
2017-02-17T06:34:54.874Z,24.16
2017-02-17T06:35:54.801Z,24.16
2017-02-17T06:36:54.747Z,24.16
2017-02-17T06:37:54.675Z,24.13
2017-02-17T06:38:54.626Z,24.13
2017-02-17T06:39:54.555Z,24.23
2017-02-17T06:40:54.786Z,24.23
2017-02-17T06:41:54.439Z,24.14
2017-02-17T06:42:54.377Z,24.2
2017-02-17T06:43:54.313Z,24.21
2017-02-17T06:44:54.246Z,24.16
2017-02-17T06:45:54.178Z,24.11
2017-02-17T06:46:54.115Z,24.2
2017-02-17T06:47:54.049Z,24.21
2017-02-17T06:48:54.279Z,24.13
2017-02-17T06:49:53.933Z,24.2
2017-02-17T06:50:53.869Z,24.2
2017-02-17T06:51:53.800Z,24.2
2017-02-17T06:52:54.052Z,24.18
2017-02-17T06:53:53.691Z,24.14
2017-02-17T06:54:53.618Z,24.14
2017-02-17T06:55:53.565Z,24.24
2017-02-17T06:56:53.490Z,24.21
2017-02-17T06:57:53.435Z,24.2
2017-02-17T06:58:53.372Z,24.2
2017-02-17T06:59:52.919Z,24.13
2017-02-17T07:00:53.253Z,24.2
2017-02-17T07:01:53.474Z,24.2
2017-02-17T07:02:53.114Z,24.18
2017-02-17T07:03:53.052Z,24.23
2017-02-17T07:04:52.989Z,24.17
2017-02-17T07:05:52.928Z,24.16
2017-02-17T07:06:52.868Z,24.14
2017-02-17T07:07:52.809Z,24.14
2017-02-17T07:08:52.739Z,24.14
2017-02-17T07:09:52.677Z,24.14
2017-02-17T07:10:52.224Z,24.2
2017-02-17T07:11:52.551Z,24.21
2017-02-17T07:12:52.803Z,24.14
2017-02-17T07:13:52.427Z,24.17
2017-02-17T07:14:52.373Z,24.21
2017-02-17T07:15:52.299Z,24.26
2017-02-17T07:16:52.247Z,24.2
2017-02-17T07:17:52.184Z,24.23
2017-02-17T07:18:52.118Z,24.17
2017-02-17T07:19:52.057Z,24.14
2017-02-17T07:20:51.994Z,24.21
2017-02-17T07:21:52.215Z,24.24
2017-02-17T07:22:51.873Z,24.14
2017-02-17T07:23:51.801Z,24.14
2017-02-17T07:24:51.414Z,24.23
2017-02-17T07:25:51.682Z,24.13
2017-02-17T07:26:51.616Z,24.21
2017-02-17T07:27:51.162Z,24.16
2017-02-17T07:28:51.793Z,24.23
2017-02-17T07:29:51.438Z,24.11
2017-02-17T07:30:51.358Z,24.16
2017-02-17T07:31:51.306Z,24.2
2017-02-17T07:32:51.539Z,24.16
2017-02-17T07:33:51.479Z,24.2
2017-02-17T07:34:51.124Z,24.13
2017-02-17T07:35:51.346Z,24.18
2017-02-17T07:36:50.994Z,24.14
2017-02-17T07:37:51.235Z,24.23
2017-02-17T07:38:50.863Z,24.2
2017-02-17T07:39:50.807Z,24.17
2017-02-17T07:40:50.760Z,24.21
2017-02-17T07:41:50.673Z,24.14
2017-02-17T07:42:50.621Z,24.16
2017-02-17T07:43:50.552Z,24.17
2017-02-17T07:44:50.486Z,24.13
2017-02-17T07:45:50.726Z,24.1
2017-02-17T07:46:50.370Z,24.23
2017-02-17T07:47:49.911Z,24.18
2017-02-17T07:48:50.236Z,24.18
2017-02-17T07:49:50.200Z,24.13
2017-02-17T07:50:50.110Z,24.14
2017-02-17T07:51:50.058Z,24.18
2017-02-17T07:52:49.997Z,24.13
2017-02-17T07:53:49.929Z,24.18
2017-02-17T07:54:49.775Z,24.2
2017-02-17T07:55:49.796Z,24.16
2017-02-17T07:56:49.742Z,24.2
2017-02-17T07:57:49.688Z,24.23
2017-02-17T07:58:49.608Z,24.29
2017-02-17T07:59:49.567Z,24.24
2017-02-17T08:00:49.493Z,24.18
2017-02-17T08:01:49.421Z,24.21
2017-02-17T08:02:49.362Z,24.23
2017-02-17T08:03:49.297Z,24.13
2017-02-17T08:04:49.249Z,24.21
2017-02-17T08:05:49.179Z,24.18
2017-02-17T08:06:49.122Z,24.23
2017-02-17T08:07:49.048Z,24.14
2017-02-17T08:08:49.277Z,24.2
2017-02-17T08:09:48.933Z,24.21
2017-02-17T08:10:48.877Z,24.24
2017-02-17T08:11:49.091Z,24.11
2017-02-17T08:12:48.751Z,24.13
2017-02-17T08:13:48.678Z,24.14
2017-02-17T08:14:48.238Z,24.21
2017-02-17T08:15:48.557Z,24.18
2017-02-17T08:16:48.486Z,24.18
2017-02-17T08:17:48.424Z,24.2
2017-02-17T08:18:48.666Z,24.2
2017-02-17T08:19:48.298Z,24.2
2017-02-17T08:20:48.233Z,24.21
2017-02-17T08:21:48.175Z,24.2
2017-02-17T08:22:47.754Z,24.2
2017-02-17T08:23:48.054Z,24.21
2017-02-17T08:24:47.999Z,24.16
2017-02-17T08:25:48.515Z,24.21
2017-02-17T08:26:47.892Z,24.28
2017-02-17T08:27:47.815Z,24.18
2017-02-17T08:28:47.745Z,24.1
2017-02-17T08:29:47.298Z,24.17
2017-02-17T08:30:47.965Z,24.23
2017-02-17T08:31:47.552Z,24.17
2017-02-17T08:32:47.493Z,24.21
2017-02-17T08:33:47.442Z,24.23
2017-02-17T08:34:47.398Z,24.2
2017-02-17T08:35:47.312Z,24.11
2017-02-17T08:36:47.247Z,24.24
2017-02-17T08:37:47.174Z,24.2
2017-02-17T08:38:47.121Z,24.21
2017-02-17T08:39:47.061Z,24.28
2017-02-17T08:40:46.989Z,24.23
2017-02-17T08:41:46.920Z,24.17
2017-02-17T08:42:46.869Z,24.24
2017-02-17T08:43:46.795Z,24.21
2017-02-17T08:44:47.038Z,24.2
2017-02-17T08:45:45.908Z,24.24
2017-02-17T08:46:46.903Z,24.21
2017-02-17T08:47:46.848Z,24.21
2017-02-17T08:48:46.543Z,24.2
2017-02-17T08:49:46.435Z,24.2
2017-02-17T08:50:46.377Z,24.26
2017-02-17T08:51:46.340Z,24.2
2017-02-17T08:52:46.258Z,24.2
2017-02-17T08:53:46.195Z,24.14
2017-02-17T08:54:46.229Z,24.14
2017-02-17T08:55:46.063Z,24.16
2017-02-17T08:56:46.007Z,24.21
2017-02-17T08:57:46.241Z,24.24
2017-02-17T08:58:45.792Z,24.23
2017-02-17T08:59:45.804Z,24.24
2017-02-17T09:00:45.775Z,24.28
2017-02-17T09:01:45.684Z,24.26
2017-02-17T09:02:45.282Z,24.23
2017-02-17T09:03:45.576Z,24.29
2017-02-17T09:04:45.654Z,24.29
2017-02-17T09:05:45.730Z,24.24
2017-02-17T09:06:45.383Z,24.35
2017-02-17T09:07:45.612Z,24.26
2017-02-17T09:08:45.255Z,24.29
2017-02-17T09:09:45.184Z,24.29
2017-02-17T09:10:45.189Z,24.26
2017-02-17T09:11:45.238Z,24.23
2017-02-17T09:12:45.041Z,24.38
2017-02-17T09:13:44.925Z,24.28
2017-02-17T09:14:44.089Z,24.39
2017-02-17T09:15:45.049Z,24.36
2017-02-17T09:16:44.757Z,24.33
2017-02-17T09:17:44.675Z,24.32
2017-02-17T09:18:44.671Z,24.36
2017-02-17T09:19:44.617Z,24.42
2017-02-17T09:20:44.499Z,24.38
2017-02-17T09:21:44.439Z,24.4
2017-02-17T09:22:44.364Z,24.39
2017-02-17T09:23:44.330Z,24.42
2017-02-17T09:24:44.250Z,24.43
2017-02-17T09:25:44.194Z,24.4
2017-02-17T09:26:44.256Z,24.38
2017-02-17T09:27:44.052Z,24.4
2017-02-17T09:28:43.621Z,24.38
2017-02-17T09:29:43.972Z,24.43
2017-02-17T09:30:44.007Z,24.5
2017-02-17T09:31:43.807Z,24.39
2017-02-17T09:32:43.710Z,24.45
2017-02-17T09:33:44.033Z,24.48
2017-02-17T09:34:43.622Z,24.5
2017-02-17T09:35:43.575Z,24.43
2017-02-17T09:36:43.535Z,24.5
2017-02-17T09:37:43.437Z,24.47
2017-02-17T09:38:43.432Z,24.48
2017-02-17T09:39:43.320Z,24.45
2017-02-17T09:40:43.594Z,24.43
2017-02-17T09:41:43.430Z,24.38
2017-02-17T09:42:43.265Z,24.45
2017-02-17T09:43:43.338Z,24.4
2017-02-17T09:44:42.997Z,24.48
2017-02-17T09:45:42.934Z,24.42
2017-02-17T09:46:42.875Z,24.45
2017-02-17T09:47:42.809Z,24.47
2017-02-17T09:48:42.755Z,24.45
2017-02-17T09:49:42.696Z,24.4
2017-02-17T09:50:42.645Z,24.39
2017-02-17T09:51:42.581Z,24.45
2017-02-17T09:52:42.513Z,24.42
2017-02-17T09:53:42.449Z,24.43
2017-02-17T09:54:41.996Z,24.42
2017-02-17T09:55:42.324Z,24.48
2017-02-17T09:56:42.289Z,24.45
2017-02-17T09:57:42.484Z,24.48
2017-02-17T09:58:42.415Z,24.39
2017-02-17T09:59:42.090Z,24.42
2017-02-17T10:00:42.169Z,24.48
2017-02-17T10:01:41.943Z,24.45
2017-02-17T10:02:41.899Z,24.45
2017-02-17T10:03:41.844Z,24.42
2017-02-17T10:04:41.872Z,24.38
2017-02-17T10:05:41.341Z,24.39
2017-02-17T10:06:42.276Z,24.47
2017-02-17T10:07:41.569Z,24.42
2017-02-17T10:08:41.509Z,24.43
2017-02-17T10:09:41.466Z,24.45
2017-02-17T10:10:41.660Z,24.47
2017-02-17T10:11:41.339Z,24.42
2017-02-17T10:12:41.262Z,24.42
2017-02-17T10:13:41.198Z,24.43
2017-02-17T10:14:41.133Z,24.42
2017-02-17T10:15:41.319Z,24.45
2017-02-17T10:16:41.010Z,24.48
2017-02-17T10:17:40.961Z,24.42
2017-02-17T10:18:40.884Z,24.53
2017-02-17T10:19:41.116Z,24.48
2017-02-17T10:20:41.077Z,24.39
2017-02-17T10:21:40.710Z,24.38
2017-02-17T10:22:40.663Z,24.47
2017-02-17T10:23:40.631Z,24.39
2017-02-17T10:24:40.523Z,24.47
2017-02-17T10:25:40.446Z,24.47
2017-02-17T10:26:40.394Z,24.51
2017-02-17T10:27:40.334Z,24.43
2017-02-17T10:28:40.498Z,24.45
2017-02-17T10:29:40.219Z,24.39
2017-02-17T10:30:40.151Z,24.4
2017-02-17T10:31:40.109Z,24.4
2017-02-17T10:32:40.017Z,24.42
2017-02-17T10:33:39.953Z,24.39
2017-02-17T10:34:39.917Z,24.39
2017-02-17T10:35:39.826Z,24.45
2017-02-17T10:36:39.774Z,24.39
2017-02-17T10:37:39.852Z,24.39
2017-02-17T10:38:39.707Z,24.36
2017-02-17T10:39:39.609Z,24.35
2017-02-17T10:40:40.009Z,24.33
2017-02-17T10:41:39.462Z,24.32
2017-02-17T10:42:39.533Z,24.29
2017-02-17T10:43:39.348Z,24.35
2017-02-17T10:44:39.283Z,24.42
2017-02-17T10:45:39.563Z,24.4
2017-02-17T10:46:39.142Z,24.21
2017-02-17T10:47:39.090Z,24.29
2017-02-17T10:48:39.030Z,24.36
2017-02-17T10:49:38.953Z,24.38
2017-02-17T10:50:38.902Z,24.35
2017-02-17T10:51:39.147Z,24.39
2017-02-17T10:52:38.375Z,24.35
2017-02-17T10:53:39.002Z,24.4
2017-02-17T10:54:38.658Z,24.26
2017-02-17T10:55:38.879Z,24.26
2017-02-17T10:56:38.535Z,24.28
2017-02-17T10:57:38.071Z,24.23
2017-02-17T10:58:38.439Z,24.24
2017-02-17T10:59:38.634Z,24.23
2017-02-17T11:00:38.278Z,24.38
2017-02-17T11:01:38.215Z,24.36
2017-02-17T11:02:38.153Z,24.38
2017-02-17T11:03:38.083Z,24.38
2017-02-17T11:04:38.028Z,24.39
2017-02-17T11:05:37.960Z,24.4
2017-02-17T11:06:37.899Z,24.36
2017-02-17T11:07:37.832Z,24.39
2017-02-17T11:08:37.780Z,24.32
2017-02-17T11:09:37.756Z,24.4
2017-02-17T11:10:37.642Z,24.38
2017-02-17T11:11:37.605Z,24.51
2017-02-17T11:12:37.528Z,24.48
2017-02-17T11:13:37.771Z,24.39
2017-02-17T11:14:37.407Z,24.47
2017-02-17T11:15:37.336Z,24.48
2017-02-17T11:16:37.277Z,24.43
2017-02-17T11:17:37.266Z,24.47
2017-02-17T11:18:37.146Z,24.5
2017-02-17T11:19:37.425Z,24.48
2017-02-17T11:20:37.277Z,24.53
2017-02-17T11:21:36.969Z,24.48
2017-02-17T11:22:36.896Z,24.58
2017-02-17T11:23:36.842Z,24.54
2017-02-17T11:24:36.778Z,24.55
2017-02-17T11:25:36.718Z,24.57
2017-02-17T11:26:36.648Z,24.57
2017-02-17T11:27:36.598Z,24.61
2017-02-17T11:28:36.540Z,24.57
2017-02-17T11:29:36.469Z,24.57
2017-02-17T11:30:36.404Z,24.58
2017-02-17T11:31:36.353Z,24.66
2017-02-17T11:32:36.292Z,24.61
2017-02-17T11:33:36.232Z,24.6
2017-02-17T11:34:36.162Z,24.61
2017-02-17T11:35:36.394Z,24.69
2017-02-17T11:36:35.631Z,24.7
2017-02-17T11:37:35.974Z,24.7
2017-02-17T11:38:35.925Z,24.65
2017-02-17T11:39:35.848Z,24.7
2017-02-17T11:40:35.792Z,24.65
2017-02-17T11:41:35.737Z,24.69
2017-02-17T11:42:35.672Z,24.61
2017-02-17T11:43:35.594Z,24.65
2017-02-17T11:44:35.549Z,24.76
2017-02-17T11:45:35.771Z,24.73
2017-02-17T11:46:35.416Z,24.69
2017-02-17T11:47:35.354Z,24.74
2017-02-17T11:48:35.289Z,24.76
2017-02-17T11:49:34.894Z,24.78
2017-02-17T11:50:35.168Z,24.74
2017-02-17T11:51:35.101Z,24.76
2017-02-17T11:52:35.058Z,24.8
2017-02-17T11:53:34.981Z,24.78
2017-02-17T11:54:34.929Z,24.8
2017-02-17T11:55:34.456Z,24.84
2017-02-17T11:56:34.820Z,24.74
2017-02-17T11:57:34.347Z,24.8
2017-02-17T11:58:34.280Z,24.81
2017-02-17T11:59:34.624Z,24.77
2017-02-17T12:00:34.859Z,24.84
2017-02-17T12:01:34.486Z,24.81
2017-02-17T12:02:34.444Z,24.73
2017-02-17T12:03:34.355Z,24.77
2017-02-17T12:04:34.319Z,24.8
2017-02-17T12:05:33.847Z,24.77
2017-02-17T12:06:34.459Z,24.68
2017-02-17T12:07:34.135Z,24.84
2017-02-17T12:08:34.060Z,24.77
2017-02-17T12:09:33.987Z,24.84
2017-02-17T12:10:33.548Z,24.69
2017-02-17T12:11:34.165Z,24.69
2017-02-17T12:12:33.803Z,24.78
2017-02-17T12:13:33.977Z,24.69
2017-02-17T12:14:33.691Z,24.7
2017-02-17T12:15:33.868Z,24.65
2017-02-17T12:16:33.867Z,24.66
2017-02-17T12:17:33.102Z,24.76
2017-02-17T12:18:33.040Z,24.63
2017-02-17T12:19:33.383Z,24.66
2017-02-17T12:20:33.576Z,24.61
2017-02-17T12:21:33.265Z,24.73
2017-02-17T12:22:33.199Z,24.63
2017-02-17T12:23:33.429Z,24.6
2017-02-17T12:24:32.277Z,24.66
2017-02-17T12:25:32.669Z,24.66
2017-02-17T12:26:32.549Z,24.6
2017-02-17T12:27:32.882Z,24.65
2017-02-17T12:28:32.821Z,24.6
2017-02-17T12:29:32.779Z,24.65
2017-02-17T12:30:32.702Z,24.6
2017-02-17T12:31:32.631Z,24.63
2017-02-17T12:32:32.622Z,24.65
2017-02-17T12:33:32.505Z,24.6
2017-02-17T12:34:32.440Z,24.54
2017-02-17T12:35:32.380Z,24.6
2017-02-17T12:36:32.317Z,24.6
2017-02-17T12:37:32.270Z,24.63
2017-02-17T12:38:32.198Z,24.58
2017-02-17T12:39:32.429Z,24.6
2017-02-17T12:40:32.078Z,24.61
2017-02-17T12:41:32.007Z,24.65
2017-02-17T12:42:31.953Z,24.6
2017-02-17T12:43:31.895Z,24.68
2017-02-17T12:44:31.820Z,24.57
2017-02-17T12:45:31.779Z,24.6
2017-02-17T12:46:31.320Z,24.63
2017-02-17T12:47:31.659Z,24.63
2017-02-17T12:48:31.582Z,24.61
2017-02-17T12:49:31.520Z,24.57
2017-02-17T12:50:31.059Z,24.61
2017-02-17T12:51:31.402Z,24.55
2017-02-17T12:52:30.945Z,24.55
2017-02-17T12:53:31.269Z,24.61
2017-02-17T12:54:31.239Z,24.6
2017-02-17T12:55:31.149Z,24.57
2017-02-17T12:56:31.083Z,24.65